首页
METAR-TAF:

METAR-TAF

机场 :

Earlton, 安大略省, 加拿大

纬度: 47-42N, 经度: 079-51W, 海拔: 243米

当前天气观测

该预报发布于54分钟前的02:00 UTC
风速6节,风向西转西南
温度 8°C
湿度 76%
气压 1021 hPa
能見度: 14.5公里
阴天层高于7000英尺

METAR: CYXR 010200Z AUTO 24006KT 9SM OVC070 08/04 A3014 RMK SLP217

时间: 22:54 (02:54 UTC)

预报

该预报发布于9小时和24分钟前的17:30 UTC
预报有效从31日的 18点(UTC)到 31日的 24点(UTC)
风速3节,风向多变
能見度: 10公里
多云层高于6000英尺
短暂存在
从 31日的 18点(UTC)到 31日的 24点(UTC)
能見度: 10公里
小阵雨
成为
从 31日的 18点(UTC)到 31日的 20点(UTC)
风速12节,风向西转西北,有时为22节阵风

TAF: CYXR 311730Z 3118/3124 VRB03KT P6SM BKN060 TEMPO 3118/3124 P6SM -SHRA BECMG 3118/3120 30012G22KT RMK FCST BASED ON AUTO OBS. NXT FCST WILL BE ISSUED AT 011145Z

超过4000个机场的气象观测和天气预报(METAR&TAF报告)。

可查询的气象台以黄色和红色小点在地图上表示。

将鼠标移到小点上方,可查看气象台名称。

然后点击查看天气观测和预报。

如需切换地图:点击带黑十字的绿色按钮放大地图;点击带横线的绿色按钮缩小地图;或者点击绿色箭头查看邻近地区的地图。


METAR-TAF: